sensor_id;sensor_type;location;lat;lon;timestamp;P1;durP1;ratioP1;P2;durP2;ratioP2
1747;SDS011;871;47.034;15.394;2022-12-08T05:02:32;93.72;;;21.40;;
1747;SDS011;871;47.034;15.394;2022-12-08T05:05:00;91.80;;;22.15;;
1747;SDS011;871;47.034;15.394;2022-12-08T05:07:26;91.73;;;22.47;;
1747;SDS011;871;47.034;15.394;2022-12-08T05:09:52;74.78;;;20.48;;
1747;SDS011;871;47.034;15.394;2022-12-08T05:12:18;85.70;;;20.90;;
1747;SDS011;871;47.034;15.394;2022-12-08T05:14:45;80.70;;;20.67;;
1747;SDS011;871;47.034;15.394;2022-12-08T05:17:12;65.57;;;19.35;;
1747;SDS011;871;47.034;15.394;2022-12-08T05:19:38;68.32;;;19.73;;
1747;SDS011;871;47.034;15.394;2022-12-08T05:22:04;69.72;;;19.80;;
1747;SDS011;871;47.034;15.394;2022-12-08T05:24:30;76.67;;;18.60;;
1747;SDS011;871;47.034;15.394;2022-12-08T05:26:56;67.22;;;18.92;;
1747;SDS011;871;47.034;15.394;2022-12-08T05:29:22;79.63;;;19.45;;
1747;SDS011;871;47.034;15.394;2022-12-08T05:31:48;69.25;;;18.00;;
1747;SDS011;871;47.034;15.394;2022-12-08T05:34:14;64.70;;;17.65;;
1747;SDS011;871;47.034;15.394;2022-12-08T05:36:40;67.45;;;19.08;;
1747;SDS011;871;47.034;15.394;2022-12-08T05:39:06;80.88;;;19.60;;
1747;SDS011;871;47.034;15.394;2022-12-08T05:41:32;84.60;;;18.52;;
1747;SDS011;871;47.034;15.394;2022-12-08T05:43:58;83.88;;;22.52;;
1747;SDS011;871;47.034;15.394;2022-12-08T05:46:24;77.80;;;20.60;;
1747;SDS011;871;47.034;15.394;2022-12-08T05:48:50;87.63;;;20.80;;
1747;SDS011;871;47.034;15.394;2022-12-08T05:51:18;84.32;;;18.95;;
1747;SDS011;871;47.034;15.394;2022-12-08T05:53:45;94.07;;;19.02;;
1747;SDS011;871;47.034;15.394;2022-12-08T05:56:11;80.72;;;18.95;;
1747;SDS011;871;47.034;15.394;2022-12-08T05:58:37;84.10;;;18.92;;
1747;SDS011;871;47.034;15.394;2022-12-08T06:01:04;89.10;;;20.60;;
1747;SDS011;871;47.034;15.394;2022-12-08T06:03:30;93.60;;;20.85;;
1747;SDS011;871;47.034;15.394;2022-12-08T06:05:56;84.97;;;20.08;;
1747;SDS011;871;47.034;15.394;2022-12-08T06:08:22;77.77;;;16.63;;
1747;SDS011;871;47.034;15.394;2022-12-08T06:10:48;91.35;;;19.63;;
1747;SDS011;871;47.034;15.394;2022-12-08T06:13:14;84.53;;;21.38;;
1747;SDS011;871;47.034;15.394;2022-12-08T06:15:40;82.82;;;19.35;;
1747;SDS011;871;47.034;15.394;2022-12-08T06:18:06;79.50;;;17.45;;
1747;SDS011;871;47.034;15.394;2022-12-08T06:20:33;83.28;;;19.40;;
1747;SDS011;871;47.034;15.394;2022-12-08T06:22:59;82.22;;;19.10;;
1747;SDS011;871;47.034;15.394;2022-12-08T06:25:25;79.72;;;19.05;;
1747;SDS011;871;47.034;15.394;2022-12-08T06:27:51;85.95;;;18.27;;
1747;SDS011;871;47.034;15.394;2022-12-08T06:30:17;79.65;;;17.85;;
1747;SDS011;871;47.034;15.394;2022-12-08T06:32:43;108.40;;;21.50;;
1747;SDS011;871;47.034;15.394;2022-12-08T06:35:09;86.07;;;20.07;;
1747;SDS011;871;47.034;15.394;2022-12-08T06:37:35;78.32;;;18.30;;
1747;SDS011;871;47.034;15.394;2022-12-08T06:40:01;72.05;;;18.90;;
1747;SDS011;871;47.034;15.394;2022-12-08T06:42:27;92.28;;;22.55;;
1747;SDS011;871;47.034;15.394;2022-12-08T06:45:16;78.78;;;20.95;;
1747;SDS011;871;47.034;15.394;2022-12-08T06:47:42;85.90;;;20.52;;
1747;SDS011;871;47.034;15.394;2022-12-08T06:50:09;90.70;;;22.83;;
1747;SDS011;871;47.034;15.394;2022-12-08T06:52:35;88.18;;;20.02;;
1747;SDS011;871;47.034;15.394;2022-12-08T06:55:01;89.65;;;22.35;;
1747;SDS011;871;47.034;15.394;2022-12-08T06:57:27;92.80;;;21.10;;
1747;SDS011;871;47.034;15.394;2022-12-08T06:59:53;87.30;;;21.40;;
1747;SDS011;871;47.034;15.394;2022-12-08T07:02:19;88.75;;;19.98;;
1747;SDS011;871;47.034;15.394;2022-12-08T07:04:45;95.17;;;20.47;;
1747;SDS011;871;47.034;15.394;2022-12-08T07:07:11;91.68;;;21.45;;
1747;SDS011;871;47.034;15.394;2022-12-08T07:09:37;94.20;;;19.02;;
1747;SDS011;871;47.034;15.394;2022-12-08T07:12:03;90.72;;;21.83;;
1747;SDS011;871;47.034;15.394;2022-12-08T07:14:29;91.85;;;20.08;;
1747;SDS011;871;47.034;15.394;2022-12-08T07:16:56;75.38;;;15.13;;
1747;SDS011;871;47.034;15.394;2022-12-08T07:19:22;94.90;;;21.50;;
1747;SDS011;871;47.034;15.394;2022-12-08T07:21:48;103.97;;;21.27;;
1747;SDS011;871;47.034;15.394;2022-12-08T07:24:14;105.63;;;20.58;;
1747;SDS011;871;47.034;15.394;2022-12-08T07:26:40;100.93;;;21.90;;
1747;SDS011;871;47.034;15.394;2022-12-08T07:29:06;98.65;;;23.27;;
1747;SDS011;871;47.034;15.394;2022-12-08T07:31:32;91.88;;;21.98;;
1747;SDS011;871;47.034;15.394;2022-12-08T07:33:58;87.40;;;22.70;;
1747;SDS011;871;47.034;15.394;2022-12-08T07:36:24;97.68;;;23.88;;
1747;SDS011;871;47.034;15.394;2022-12-08T07:38:50;100.85;;;25.83;;
1747;SDS011;871;47.034;15.394;2022-12-08T07:41:21;86.38;;;19.38;;
1747;SDS011;871;47.034;15.394;2022-12-08T07:43:48;86.68;;;19.10;;
1747;SDS011;871;47.034;15.394;2022-12-08T07:46:15;95.55;;;19.75;;
1747;SDS011;871;47.034;15.394;2022-12-08T07:48:41;88.15;;;21.38;;
1747;SDS011;871;47.034;15.394;2022-12-08T07:51:07;86.05;;;23.05;;
1747;SDS011;871;47.034;15.394;2022-12-08T07:53:33;92.32;;;21.40;;
1747;SDS011;871;47.034;15.394;2022-12-08T07:55:59;105.03;;;22.55;;
1747;SDS011;871;47.034;15.394;2022-12-08T07:58:26;101.47;;;21.60;;
1747;SDS011;871;47.034;15.394;2022-12-08T08:00:52;83.87;;;21.77;;
1747;SDS011;871;47.034;15.394;2022-12-08T08:03:18;96.75;;;21.88;;
1747;SDS011;871;47.034;15.394;2022-12-08T08:05:45;101.95;;;21.52;;
1747;SDS011;871;47.034;15.394;2022-12-08T08:08:13;89.47;;;20.77;;
1747;SDS011;871;47.034;15.394;2022-12-08T08:10:39;81.07;;;18.98;;
1747;SDS011;871;47.034;15.394;2022-12-08T08:13:05;91.43;;;19.20;;
1747;SDS011;871;47.034;15.394;2022-12-08T08:15:31;88.18;;;22.05;;
1747;SDS011;871;47.034;15.394;2022-12-08T08:17:57;72.72;;;18.83;;
1747;SDS011;871;47.034;15.394;2022-12-08T08:20:23;85.00;;;17.42;;
1747;SDS011;871;47.034;15.394;2022-12-08T08:22:49;82.95;;;19.73;;
1747;SDS011;871;47.034;15.394;2022-12-08T08:25:16;78.20;;;20.90;;
1747;SDS011;871;47.034;15.394;2022-12-08T08:27:42;86.13;;;21.92;;
1747;SDS011;871;47.034;15.394;2022-12-08T08:30:09;83.78;;;20.05;;
1747;SDS011;871;47.034;15.394;2022-12-08T08:32:36;86.55;;;18.80;;
1747;SDS011;871;47.034;15.394;2022-12-08T08:35:03;97.57;;;21.10;;
1747;SDS011;871;47.034;15.394;2022-12-08T08:37:29;93.90;;;23.38;;
1747;SDS011;871;47.034;15.394;2022-12-08T08:39:55;79.20;;;17.70;;
1747;SDS011;871;47.034;15.394;2022-12-08T08:42:21;85.30;;;23.00;;
1747;SDS011;871;47.034;15.394;2022-12-08T08:44:47;79.03;;;19.27;;
1747;SDS011;871;47.034;15.394;2022-12-08T08:47:13;77.43;;;18.80;;
1747;SDS011;871;47.034;15.394;2022-12-08T08:49:39;84.57;;;21.42;;
1747;SDS011;871;47.034;15.394;2022-12-08T08:52:05;82.72;;;19.38;;
1747;SDS011;871;47.034;15.394;2022-12-08T08:54:31;83.13;;;20.33;;
1747;SDS011;871;47.034;15.394;2022-12-08T08:56:58;71.38;;;17.83;;
1747;SDS011;871;47.034;15.394;2022-12-08T08:59:24;97.07;;;19.42;;
1747;SDS011;871;47.034;15.394;2022-12-08T09:01:51;84.35;;;19.42;;
1747;SDS011;871;47.034;15.394;2022-12-08T09:04:17;90.18;;;22.95;;
1747;SDS011;871;47.034;15.394;2022-12-08T09:06:43;89.47;;;22.35;;
1747;SDS011;871;47.034;15.394;2022-12-08T09:09:09;77.63;;;19.20;;
1747;SDS011;871;47.034;15.394;2022-12-08T09:11:35;88.60;;;18.90;;
1747;SDS011;871;47.034;15.394;2022-12-08T09:14:02;88.22;;;20.85;;
1747;SDS011;871;47.034;15.394;2022-12-08T09:16:28;77.75;;;20.00;;
1747;SDS011;871;47.034;15.394;2022-12-08T09:18:54;82.40;;;20.48;;
1747;SDS011;871;47.034;15.394;2022-12-08T09:21:22;77.05;;;19.88;;
1747;SDS011;871;47.034;15.394;2022-12-08T09:23:50;89.25;;;21.92;;
1747;SDS011;871;47.034;15.394;2022-12-08T09:26:17;86.10;;;22.77;;
1747;SDS011;871;47.034;15.394;2022-12-08T09:28:46;83.20;;;20.33;;
1747;SDS011;871;47.034;15.394;2022-12-08T09:31:14;88.50;;;23.13;;
1747;SDS011;871;47.034;15.394;2022-12-08T09:33:40;77.43;;;18.13;;
1747;SDS011;871;47.034;15.394;2022-12-08T09:36:07;75.90;;;18.02;;
1747;SDS011;871;47.034;15.394;2022-12-08T09:38:33;80.78;;;21.77;;
1747;SDS011;871;47.034;15.394;2022-12-08T09:41:00;80.68;;;21.52;;
1747;SDS011;871;47.034;15.394;2022-12-08T09:46:00;73.65;;;17.80;;
1747;SDS011;871;47.034;15.394;2022-12-08T09:48:31;87.18;;;20.42;;
1747;SDS011;871;47.034;15.394;2022-12-08T09:50:58;67.05;;;16.80;;
1747;SDS011;871;47.034;15.394;2022-12-08T09:53:26;84.00;;;19.48;;
1747;SDS011;871;47.034;15.394;2022-12-08T09:55:59;78.85;;;19.95;;
1747;SDS011;871;47.034;15.394;2022-12-08T10:00:58;83.03;;;22.17;;
1747;SDS011;871;47.034;15.394;2022-12-08T10:03:25;86.38;;;22.40;;
1747;SDS011;871;47.034;15.394;2022-12-08T10:06:37;91.28;;;22.35;;
1747;SDS011;871;47.034;15.394;2022-12-08T10:11:15;81.43;;;22.60;;
1747;SDS011;871;47.034;15.394;2022-12-08T10:13:54;76.20;;;18.50;;
1747;SDS011;871;47.034;15.394;2022-12-08T10:19:11;70.95;;;17.02;;
1747;SDS011;871;47.034;15.394;2022-12-08T10:21:35;76.97;;;18.10;;
1747;SDS011;871;47.034;15.394;2022-12-08T10:24:03;78.43;;;16.90;;
1747;SDS011;871;47.034;15.394;2022-12-08T10:26:31;77.30;;;17.60;;
1747;SDS011;871;47.034;15.394;2022-12-08T10:28:58;73.28;;;20.05;;
1747;SDS011;871;47.034;15.394;2022-12-08T10:31:28;70.65;;;16.00;;
1747;SDS011;871;47.034;15.394;2022-12-08T10:33:58;76.50;;;17.23;;
1747;SDS011;871;47.034;15.394;2022-12-08T10:36:44;65.80;;;16.35;;
1747;SDS011;871;47.034;15.394;2022-12-08T10:42:38;76.88;;;20.35;;
1747;SDS011;871;47.034;15.394;2022-12-08T10:44:51;76.35;;;20.08;;
1747;SDS011;871;47.034;15.394;2022-12-08T10:47:19;69.75;;;17.40;;
1747;SDS011;871;47.034;15.394;2022-12-08T10:49:46;72.72;;;18.05;;
1747;SDS011;871;47.034;15.394;2022-12-08T10:52:22;68.22;;;15.15;;
1747;SDS011;871;47.034;15.394;2022-12-08T10:54:52;77.13;;;20.73;;
1747;SDS011;871;47.034;15.394;2022-12-08T10:57:19;78.95;;;20.83;;
1747;SDS011;871;47.034;15.394;2022-12-08T10:59:45;76.68;;;17.58;;
1747;SDS011;871;47.034;15.394;2022-12-08T11:02:17;83.88;;;20.33;;
1747;SDS011;871;47.034;15.394;2022-12-08T11:04:44;76.32;;;18.42;;
1747;SDS011;871;47.034;15.394;2022-12-08T11:07:11;69.28;;;15.95;;
1747;SDS011;871;47.034;15.394;2022-12-08T11:09:46;80.55;;;19.20;;
1747;SDS011;871;47.034;15.394;2022-12-08T11:12:16;66.20;;;15.98;;
1747;SDS011;871;47.034;15.394;2022-12-08T11:22:34;70.32;;;19.15;;
1747;SDS011;871;47.034;15.394;2022-12-08T11:27:28;82.60;;;20.77;;
1747;SDS011;871;47.034;15.394;2022-12-08T11:29:54;75.45;;;18.13;;
1747;SDS011;871;47.034;15.394;2022-12-08T11:32:20;79.32;;;19.27;;
1747;SDS011;871;47.034;15.394;2022-12-08T11:37:27;71.10;;;19.50;;
1747;SDS011;871;47.034;15.394;2022-12-08T11:39:55;72.68;;;18.05;;
1747;SDS011;871;47.034;15.394;2022-12-08T11:42:23;75.78;;;18.00;;
1747;SDS011;871;47.034;15.394;2022-12-08T11:44:55;73.38;;;18.23;;
1747;SDS011;871;47.034;15.394;2022-12-08T11:47:23;71.35;;;17.90;;
1747;SDS011;871;47.034;15.394;2022-12-08T11:49:52;77.97;;;16.98;;
1747;SDS011;871;47.034;15.394;2022-12-08T11:52:42;79.80;;;20.92;;
1747;SDS011;871;47.034;15.394;2022-12-08T11:55:24;78.80;;;18.48;;
1747;SDS011;871;47.034;15.394;2022-12-08T11:57:51;73.07;;;18.35;;
1747;SDS011;871;47.034;15.394;2022-12-08T12:00:19;82.85;;;20.55;;
1747;SDS011;871;47.034;15.394;2022-12-08T12:02:47;75.35;;;18.63;;
1747;SDS011;871;47.034;15.394;2022-12-08T12:08:06;76.38;;;20.23;;
1747;SDS011;871;47.034;15.394;2022-12-08T12:16:04;80.07;;;19.90;;
1747;SDS011;871;47.034;15.394;2022-12-08T12:21:09;66.97;;;16.97;;
1747;SDS011;871;47.034;15.394;2022-12-08T12:26:07;64.07;;;15.53;;
1747;SDS011;871;47.034;15.394;2022-12-08T12:28:41;67.00;;;16.08;;
1747;SDS011;871;47.034;15.394;2022-12-08T12:31:09;77.80;;;20.30;;
1747;SDS011;871;47.034;15.394;2022-12-08T12:33:36;77.13;;;17.40;;
1747;SDS011;871;47.034;15.394;2022-12-08T12:36:06;78.15;;;17.23;;
1747;SDS011;871;47.034;15.394;2022-12-08T12:38:34;79.15;;;21.00;;
1747;SDS011;871;47.034;15.394;2022-12-08T12:41:27;72.15;;;17.25;;
1747;SDS011;871;47.034;15.394;2022-12-08T12:46:56;70.72;;;15.65;;
1747;SDS011;871;47.034;15.394;2022-12-08T12:59:44;64.40;;;14.88;;
1747;SDS011;871;47.034;15.394;2022-12-08T13:02:15;60.47;;;15.38;;
1747;SDS011;871;47.034;15.394;2022-12-08T13:04:42;65.00;;;16.00;;
1747;SDS011;871;47.034;15.394;2022-12-08T13:07:20;63.20;;;15.13;;
1747;SDS011;871;47.034;15.394;2022-12-08T13:09:47;62.08;;;14.52;;
1747;SDS011;871;47.034;15.394;2022-12-08T13:12:21;71.05;;;18.35;;
1747;SDS011;871;47.034;15.394;2022-12-08T13:14:48;67.63;;;16.77;;
1747;SDS011;871;47.034;15.394;2022-12-08T13:17:17;76.93;;;17.65;;
1747;SDS011;871;47.034;15.394;2022-12-08T13:19:45;61.42;;;14.68;;
1747;SDS011;871;47.034;15.394;2022-12-08T13:25:34;71.10;;;16.70;;
1747;SDS011;871;47.034;15.394;2022-12-08T13:27:50;71.65;;;16.50;;
1747;SDS011;871;47.034;15.394;2022-12-08T13:33:01;64.57;;;17.10;;
1747;SDS011;871;47.034;15.394;2022-12-08T13:35:28;68.40;;;17.52;;
1747;SDS011;871;47.034;15.394;2022-12-08T13:37:54;72.55;;;16.95;;
1747;SDS011;871;47.034;15.394;2022-12-08T13:40:24;69.72;;;17.38;;
1747;SDS011;871;47.034;15.394;2022-12-08T13:42:59;58.47;;;14.45;;
1747;SDS011;871;47.034;15.394;2022-12-08T13:45:29;64.32;;;17.17;;
1747;SDS011;871;47.034;15.394;2022-12-08T13:50:51;64.57;;;14.40;;
1747;SDS011;871;47.034;15.394;2022-12-08T13:53:21;58.55;;;13.82;;
1747;SDS011;871;47.034;15.394;2022-12-08T13:55:48;58.83;;;13.18;;
1747;SDS011;871;47.034;15.394;2022-12-08T14:00:51;53.20;;;11.77;;
1747;SDS011;871;47.034;15.394;2022-12-08T14:03:17;55.90;;;11.75;;
1747;SDS011;871;47.034;15.394;2022-12-08T14:05:43;54.63;;;12.02;;
1747;SDS011;871;47.034;15.394;2022-12-08T14:08:17;55.43;;;11.43;;
1747;SDS011;871;47.034;15.394;2022-12-08T14:10:43;54.50;;;11.18;;
1747;SDS011;871;47.034;15.394;2022-12-08T14:13:10;53.10;;;11.77;;
1747;SDS011;871;47.034;15.394;2022-12-08T14:15:38;53.95;;;12.27;;
1747;SDS011;871;47.034;15.394;2022-12-08T14:18:05;57.50;;;12.52;;
1747;SDS011;871;47.034;15.394;2022-12-08T14:20:32;54.55;;;12.63;;
1747;SDS011;871;47.034;15.394;2022-12-08T14:22:58;59.42;;;13.50;;
1747;SDS011;871;47.034;15.394;2022-12-08T14:25:24;63.47;;;14.13;;
1747;SDS011;871;47.034;15.394;2022-12-08T14:27:55;56.33;;;12.07;;
1747;SDS011;871;47.034;15.394;2022-12-08T14:30:24;57.78;;;13.07;;
1747;SDS011;871;47.034;15.394;2022-12-08T14:32:53;61.75;;;12.77;;
1747;SDS011;871;47.034;15.394;2022-12-08T14:35:33;66.88;;;14.68;;
1747;SDS011;871;47.034;15.394;2022-12-08T14:38:00;55.95;;;13.38;;
1747;SDS011;871;47.034;15.394;2022-12-08T14:40:28;57.03;;;12.70;;
1747;SDS011;871;47.034;15.394;2022-12-08T14:45:30;59.22;;;13.93;;
1747;SDS011;871;47.034;15.394;2022-12-08T14:53:39;56.75;;;13.50;;
1747;SDS011;871;47.034;15.394;2022-12-08T14:56:30;57.13;;;13.27;;
1747;SDS011;871;47.034;15.394;2022-12-08T15:01:37;57.67;;;12.90;;
1747;SDS011;871;47.034;15.394;2022-12-08T15:06:51;63.58;;;14.13;;
1747;SDS011;871;47.034;15.394;2022-12-08T15:09:28;55.17;;;13.43;;
1747;SDS011;871;47.034;15.394;2022-12-08T15:12:01;60.72;;;14.50;;
1747;SDS011;871;47.034;15.394;2022-12-08T15:14:29;55.97;;;13.05;;
1747;SDS011;871;47.034;15.394;2022-12-08T15:16:56;56.28;;;12.82;;
1747;SDS011;871;47.034;15.394;2022-12-08T15:19:29;58.80;;;13.00;;
1747;SDS011;871;47.034;15.394;2022-12-08T15:21:56;61.70;;;14.27;;
1747;SDS011;871;47.034;15.394;2022-12-08T15:24:23;57.25;;;13.52;;
1747;SDS011;871;47.034;15.394;2022-12-08T15:26:50;65.75;;;13.98;;
1747;SDS011;871;47.034;15.394;2022-12-08T15:31:45;64.13;;;13.57;;
1747;SDS011;871;47.034;15.394;2022-12-08T15:34:11;61.92;;;14.90;;
1747;SDS011;871;47.034;15.394;2022-12-08T15:36:37;56.38;;;13.90;;
1747;SDS011;871;47.034;15.394;2022-12-08T15:39:06;55.90;;;12.63;;
1747;SDS011;871;47.034;15.394;2022-12-08T15:41:42;63.42;;;12.88;;
1747;SDS011;871;47.034;15.394;2022-12-08T15:44:08;63.93;;;16.10;;
1747;SDS011;871;47.034;15.394;2022-12-08T15:46:34;64.32;;;15.23;;
1747;SDS011;871;47.034;15.394;2022-12-08T15:49:00;61.05;;;15.05;;
1747;SDS011;871;47.034;15.394;2022-12-08T15:51:26;64.15;;;14.20;;
1747;SDS011;871;47.034;15.394;2022-12-08T15:53:54;59.72;;;14.35;;
1747;SDS011;871;47.034;15.394;2022-12-08T15:56:20;57.73;;;15.50;;
1747;SDS011;871;47.034;15.394;2022-12-08T15:58:46;60.97;;;15.45;;
1747;SDS011;871;47.034;15.394;2022-12-08T16:01:12;62.45;;;15.38;;
1747;SDS011;871;47.034;15.394;2022-12-08T16:03:40;64.22;;;14.27;;
1747;SDS011;871;47.034;15.394;2022-12-08T16:06:07;57.83;;;13.77;;
1747;SDS011;871;47.034;15.394;2022-12-08T16:08:38;64.25;;;16.50;;
1747;SDS011;871;47.034;15.394;2022-12-08T16:11:04;64.82;;;15.45;;
1747;SDS011;871;47.034;15.394;2022-12-08T16:13:48;68.53;;;17.23;;
1747;SDS011;871;47.034;15.394;2022-12-08T16:16:18;62.03;;;14.18;;
1747;SDS011;871;47.034;15.394;2022-12-08T16:18:46;58.83;;;15.10;;
1747;SDS011;871;47.034;15.394;2022-12-08T16:21:12;67.85;;;16.75;;
1747;SDS011;871;47.034;15.394;2022-12-08T16:23:38;69.85;;;18.10;;
1747;SDS011;871;47.034;15.394;2022-12-08T16:26:04;68.28;;;15.38;;
1747;SDS011;871;47.034;15.394;2022-12-08T16:28:31;64.80;;;19.27;;
1747;SDS011;871;47.034;15.394;2022-12-08T16:30:57;67.50;;;18.48;;
1747;SDS011;871;47.034;15.394;2022-12-08T16:33:23;61.38;;;16.73;;
1747;SDS011;871;47.034;15.394;2022-12-08T16:35:49;72.20;;;20.33;;
1747;SDS011;871;47.034;15.394;2022-12-08T16:38:15;63.53;;;17.02;;
1747;SDS011;871;47.034;15.394;2022-12-08T16:40:45;75.63;;;18.58;;
1747;SDS011;871;47.034;15.394;2022-12-08T16:43:33;62.50;;;17.15;;
1747;SDS011;871;47.034;15.394;2022-12-08T16:46:00;64.00;;;18.08;;
1747;SDS011;871;47.034;15.394;2022-12-08T16:48:26;62.40;;;16.45;;
1747;SDS011;871;47.034;15.394;2022-12-08T16:50:52;65.45;;;17.45;;
1747;SDS011;871;47.034;15.394;2022-12-08T16:53:18;72.40;;;18.58;;
1747;SDS011;871;47.034;15.394;2022-12-08T16:55:45;59.88;;;17.30;;
1747;SDS011;871;47.034;15.394;2022-12-08T16:58:12;70.53;;;19.85;;
1747;SDS011;871;47.034;15.394;2022-12-08T17:00:38;77.45;;;21.15;;
1747;SDS011;871;47.034;15.394;2022-12-08T17:03:05;63.38;;;16.90;;
1747;SDS011;871;47.034;15.394;2022-12-08T17:05:35;60.42;;;17.10;;
1747;SDS011;871;47.034;15.394;2022-12-08T17:08:04;71.88;;;20.63;;
1747;SDS011;871;47.034;15.394;2022-12-08T17:10:30;66.72;;;19.08;;
1747;SDS011;871;47.034;15.394;2022-12-08T17:13:02;68.75;;;18.50;;
1747;SDS011;871;47.034;15.394;2022-12-08T17:15:28;64.78;;;17.80;;
1747;SDS011;871;47.034;15.394;2022-12-08T17:18:02;71.65;;;19.83;;
1747;SDS011;871;47.034;15.394;2022-12-08T17:20:28;61.40;;;18.60;;
1747;SDS011;871;47.034;15.394;2022-12-08T17:22:55;62.58;;;13.98;;
1747;SDS011;871;47.034;15.394;2022-12-08T17:25:22;73.68;;;18.83;;
1747;SDS011;871;47.034;15.394;2022-12-08T17:27:48;69.57;;;19.60;;
1747;SDS011;871;47.034;15.394;2022-12-08T17:30:16;64.80;;;17.25;;
1747;SDS011;871;47.034;15.394;2022-12-08T17:32:43;71.28;;;18.90;;
1747;SDS011;871;47.034;15.394;2022-12-08T17:35:09;63.58;;;15.95;;
1747;SDS011;871;47.034;15.394;2022-12-08T17:37:35;66.57;;;16.95;;
1747;SDS011;871;47.034;15.394;2022-12-08T17:40:02;75.10;;;20.52;;
1747;SDS011;871;47.034;15.394;2022-12-08T17:42:28;62.33;;;16.10;;
1747;SDS011;871;47.034;15.394;2022-12-08T17:44:54;70.43;;;18.63;;
1747;SDS011;871;47.034;15.394;2022-12-08T17:47:20;58.13;;;14.60;;
1747;SDS011;871;47.034;15.394;2022-12-08T17:49:47;75.10;;;17.52;;
1747;SDS011;871;47.034;15.394;2022-12-08T17:52:13;62.22;;;17.55;;
1747;SDS011;871;47.034;15.394;2022-12-08T17:54:39;63.10;;;17.55;;
1747;SDS011;871;47.034;15.394;2022-12-08T17:57:05;70.37;;;16.70;;
1747;SDS011;871;47.034;15.394;2022-12-08T17:59:31;67.63;;;12.77;;
1747;SDS011;871;47.034;15.394;2022-12-08T18:01:58;57.13;;;14.38;;
1747;SDS011;871;47.034;15.394;2022-12-08T18:04:26;61.15;;;14.40;;
1747;SDS011;871;47.034;15.394;2022-12-08T18:06:52;60.67;;;14.48;;
1747;SDS011;871;47.034;15.394;2022-12-08T18:09:19;60.88;;;14.85;;
1747;SDS011;871;47.034;15.394;2022-12-08T18:11:45;60.10;;;13.45;;
1747;SDS011;871;47.034;15.394;2022-12-08T18:14:12;57.08;;;13.15;;
1747;SDS011;871;47.034;15.394;2022-12-08T18:16:40;53.22;;;13.70;;
1747;SDS011;871;47.034;15.394;2022-12-08T18:19:07;61.75;;;16.30;;
1747;SDS011;871;47.034;15.394;2022-12-08T18:21:34;62.90;;;14.85;;
1747;SDS011;871;47.034;15.394;2022-12-08T18:24:02;67.70;;;14.15;;
1747;SDS011;871;47.034;15.394;2022-12-08T18:26:28;60.60;;;15.27;;
1747;SDS011;871;47.034;15.394;2022-12-08T18:28:55;61.65;;;13.90;;
1747;SDS011;871;47.034;15.394;2022-12-08T18:31:22;54.97;;;12.18;;
1747;SDS011;871;47.034;15.394;2022-12-08T18:33:48;53.28;;;10.63;;
1747;SDS011;871;47.034;15.394;2022-12-08T18:36:16;56.50;;;12.70;;
1747;SDS011;871;47.034;15.394;2022-12-08T18:38:42;55.25;;;12.60;;
1747;SDS011;871;47.034;15.394;2022-12-08T18:41:10;57.65;;;13.85;;
1747;SDS011;871;47.034;15.394;2022-12-08T18:43:36;58.22;;;12.02;;
1747;SDS011;871;47.034;15.394;2022-12-08T18:46:04;60.67;;;12.98;;
1747;SDS011;871;47.034;15.394;2022-12-08T18:48:31;60.70;;;13.68;;
1747;SDS011;871;47.034;15.394;2022-12-08T18:50:57;62.78;;;12.98;;
1747;SDS011;871;47.034;15.394;2022-12-08T18:53:23;54.83;;;11.20;;
1747;SDS011;871;47.034;15.394;2022-12-08T18:55:50;56.60;;;13.00;;
1747;SDS011;871;47.034;15.394;2022-12-08T18:58:17;57.90;;;12.32;;
1747;SDS011;871;47.034;15.394;2022-12-08T19:00:44;54.25;;;13.23;;
1747;SDS011;871;47.034;15.394;2022-12-08T19:03:10;54.00;;;11.10;;
1747;SDS011;871;47.034;15.394;2022-12-08T19:05:39;62.17;;;15.23;;
1747;SDS011;871;47.034;15.394;2022-12-08T19:08:06;55.00;;;12.43;;
1747;SDS011;871;47.034;15.394;2022-12-08T19:10:33;60.65;;;14.65;;
1747;SDS011;871;47.034;15.394;2022-12-08T19:12:59;58.13;;;14.52;;
1747;SDS011;871;47.034;15.394;2022-12-08T19:15:26;55.05;;;12.35;;
1747;SDS011;871;47.034;15.394;2022-12-08T19:17:52;56.90;;;12.90;;
1747;SDS011;871;47.034;15.394;2022-12-08T19:20:18;56.78;;;12.70;;
1747;SDS011;871;47.034;15.394;2022-12-08T19:22:44;50.95;;;10.68;;
1747;SDS011;871;47.034;15.394;2022-12-08T19:25:11;53.10;;;11.70;;
1747;SDS011;871;47.034;15.394;2022-12-08T19:27:37;57.13;;;12.75;;
1747;SDS011;871;47.034;15.394;2022-12-08T19:30:04;52.15;;;11.80;;
1747;SDS011;871;47.034;15.394;2022-12-08T19:32:31;50.80;;;10.60;;
1747;SDS011;871;47.034;15.394;2022-12-08T19:34:58;59.33;;;12.25;;
1747;SDS011;871;47.034;15.394;2022-12-08T19:37:24;46.25;;;7.78;;
1747;SDS011;871;47.034;15.394;2022-12-08T19:39:53;58.20;;;14.20;;
1747;SDS011;871;47.034;15.394;2022-12-08T19:42:38;53.63;;;11.93;;
1747;SDS011;871;47.034;15.394;2022-12-08T19:45:22;54.58;;;11.30;;
1747;SDS011;871;47.034;15.394;2022-12-08T19:47:49;49.78;;;11.25;;
1747;SDS011;871;47.034;15.394;2022-12-08T19:50:16;56.42;;;11.10;;
1747;SDS011;871;47.034;15.394;2022-12-08T19:53:00;53.10;;;12.15;;
1747;SDS011;871;47.034;15.394;2022-12-08T19:55:26;57.63;;;13.25;;
1747;SDS011;871;47.034;15.394;2022-12-08T19:57:53;56.80;;;11.77;;
1747;SDS011;871;47.034;15.394;2022-12-08T20:00:21;59.95;;;11.30;;
1747;SDS011;871;47.034;15.394;2022-12-08T20:02:47;54.55;;;12.18;;
1747;SDS011;871;47.034;15.394;2022-12-08T20:05:13;52.47;;;11.80;;
1747;SDS011;871;47.034;15.394;2022-12-08T20:07:41;55.60;;;11.57;;
1747;SDS011;871;47.034;15.394;2022-12-08T20:10:11;51.17;;;11.55;;
1747;SDS011;871;47.034;15.394;2022-12-08T20:12:39;54.55;;;11.73;;
1747;SDS011;871;47.034;15.394;2022-12-08T20:15:05;61.08;;;12.07;;
1747;SDS011;871;47.034;15.394;2022-12-08T20:17:33;56.45;;;11.55;;
1747;SDS011;871;47.034;15.394;2022-12-08T20:20:01;53.85;;;12.18;;
1747;SDS011;871;47.034;15.394;2022-12-08T20:22:27;54.03;;;12.65;;
1747;SDS011;871;47.034;15.394;2022-12-08T20:24:53;55.50;;;11.90;;
1747;SDS011;871;47.034;15.394;2022-12-08T20:27:19;52.65;;;12.68;;
1747;SDS011;871;47.034;15.394;2022-12-08T20:29:47;59.58;;;13.70;;
1747;SDS011;871;47.034;15.394;2022-12-08T20:32:14;53.22;;;11.30;;
1747;SDS011;871;47.034;15.394;2022-12-08T20:34:40;66.22;;;14.93;;
1747;SDS011;871;47.034;15.394;2022-12-08T20:37:06;53.92;;;13.40;;
1747;SDS011;871;47.034;15.394;2022-12-08T20:39:33;53.15;;;11.00;;
1747;SDS011;871;47.034;15.394;2022-12-08T20:41:59;54.20;;;13.00;;
1747;SDS011;871;47.034;15.394;2022-12-08T20:44:26;56.72;;;12.05;;
1747;SDS011;871;47.034;15.394;2022-12-08T20:46:55;51.72;;;11.68;;
1747;SDS011;871;47.034;15.394;2022-12-08T20:49:21;55.88;;;12.60;;
1747;SDS011;871;47.034;15.394;2022-12-08T20:51:48;57.72;;;11.50;;
1747;SDS011;871;47.034;15.394;2022-12-08T20:54:14;53.00;;;11.63;;
1747;SDS011;871;47.034;15.394;2022-12-08T20:56:40;61.38;;;12.55;;
1747;SDS011;871;47.034;15.394;2022-12-08T20:59:06;54.03;;;12.57;;
1747;SDS011;871;47.034;15.394;2022-12-08T21:01:33;54.38;;;12.27;;
1747;SDS011;871;47.034;15.394;2022-12-08T21:03:59;57.63;;;12.95;;
1747;SDS011;871;47.034;15.394;2022-12-08T21:06:26;56.42;;;14.05;;
1747;SDS011;871;47.034;15.394;2022-12-08T21:08:52;58.30;;;11.90;;
1747;SDS011;871;47.034;15.394;2022-12-08T21:11:19;55.00;;;11.82;;
1747;SDS011;871;47.034;15.394;2022-12-08T21:13:45;52.13;;;10.90;;